createdAt,value
2022-10-13T00:02:41.874Z,11.80
2022-10-13T00:07:44.710Z,11.80
2022-10-13T00:12:47.600Z,11.70
2022-10-13T00:17:51.021Z,11.70
2022-10-13T00:22:54.142Z,11.60
2022-10-13T00:27:56.959Z,11.60
2022-10-13T00:32:59.748Z,11.60
2022-10-13T00:38:02.306Z,11.50
2022-10-13T00:43:14.487Z,11.50
2022-10-13T00:48:23.981Z,11.40
2022-10-13T00:53:33.169Z,11.30
2022-10-13T00:58:39.178Z,11.30
2022-10-13T01:03:41.939Z,11.20
2022-10-13T01:08:44.794Z,11.20
2022-10-13T01:13:54.775Z,11.20
2022-10-13T01:19:35.024Z,11.20
2022-10-13T01:24:43.388Z,11.20
2022-10-13T01:30:03.825Z,11.10
2022-10-13T01:35:14.219Z,11.10
2022-10-13T01:40:29.195Z,11.10
2022-10-13T01:45:38.506Z,11.00
2022-10-13T01:50:41.595Z,11.00
2022-10-13T01:55:52.984Z,11.00
2022-10-13T02:01:18.551Z,11.00
2022-10-13T02:06:31.250Z,11.10
2022-10-13T02:11:34.131Z,11.20
2022-10-13T02:16:41.126Z,11.20
2022-10-13T02:21:45.274Z,11.20
2022-10-13T02:26:48.306Z,11.20
2022-10-13T02:31:51.242Z,11.10
2022-10-13T02:36:54.064Z,11.00
2022-10-13T02:41:56.960Z,10.90
2022-10-13T02:47:00.172Z,10.80
2022-10-13T02:52:03.167Z,10.80
2022-10-13T02:57:05.919Z,10.70
2022-10-13T03:02:08.685Z,10.70
2022-10-13T03:07:11.791Z,10.60
2022-10-13T03:12:14.630Z,10.60
2022-10-13T03:17:17.581Z,10.50
2022-10-13T03:22:20.835Z,10.50
2022-10-13T03:27:24.104Z,10.50
2022-10-13T03:32:26.892Z,10.50
2022-10-13T03:37:30.743Z,10.40
2022-10-13T03:42:35.962Z,10.40
2022-10-13T03:47:38.726Z,10.40
2022-10-13T03:52:41.501Z,10.30
2022-10-13T03:57:44.253Z,10.30
2022-10-13T04:02:49.539Z,10.20
2022-10-13T04:07:52.319Z,10.20
2022-10-13T04:12:55.087Z,10.20
2022-10-13T04:17:57.827Z,10.20
2022-10-13T04:23:01.109Z,10.20
2022-10-13T04:28:05.759Z,10.10
2022-10-13T04:33:08.727Z,10.10
2022-10-13T04:38:11.479Z,10.10
2022-10-13T04:43:15.924Z,10.00
2022-10-13T04:48:18.730Z,10.00
2022-10-13T04:53:22.645Z,10.00
2022-10-13T04:58:25.633Z,10.00
2022-10-13T05:03:28.548Z,10.00
2022-10-13T05:08:33.196Z,10.10
2022-10-13T05:13:36.487Z,10.00
2022-10-13T05:18:39.683Z,10.00
2022-10-13T05:23:42.913Z,10.00
2022-10-13T05:28:46.685Z,10.00
2022-10-13T05:33:50.381Z,9.90
2022-10-13T05:38:55.386Z,10.00
2022-10-13T05:44:01.500Z,9.90
2022-10-13T05:49:04.687Z,9.90
2022-10-13T05:54:12.452Z,9.90
2022-10-13T05:59:17.406Z,10.00
2022-10-13T06:04:31.891Z,10.10
2022-10-13T06:09:37.929Z,10.20
2022-10-13T06:14:40.994Z,10.30
2022-10-13T06:19:45.711Z,10.50
2022-10-13T06:24:49.002Z,10.70
2022-10-13T06:29:51.801Z,11.00
2022-10-13T06:34:54.727Z,11.20
2022-10-13T06:39:57.529Z,11.40
2022-10-13T06:45:00.439Z,11.50
2022-10-13T06:50:03.547Z,11.80
2022-10-13T06:55:06.540Z,11.90
2022-10-13T07:00:09.947Z,12.00
2022-10-13T07:05:12.740Z,12.10
2022-10-13T07:10:15.679Z,12.20
2022-10-13T07:15:18.496Z,12.40
2022-10-13T07:20:22.678Z,12.50
2022-10-13T07:25:25.883Z,12.70
2022-10-13T07:30:28.678Z,12.90
2022-10-13T07:35:31.456Z,13.10
2022-10-13T07:40:34.607Z,13.30
2022-10-13T07:45:37.385Z,13.50
2022-10-13T07:50:40.125Z,13.60
2022-10-13T07:55:42.712Z,13.80
2022-10-13T08:00:45.547Z,14.00
2022-10-13T08:05:48.340Z,14.10
2022-10-13T08:10:51.468Z,14.20
2022-10-13T08:15:54.087Z,14.30
2022-10-13T08:21:23.976Z,14.40
2022-10-13T08:26:27.056Z,14.50
2022-10-13T08:31:30.262Z,14.70
2022-10-13T08:36:33.168Z,14.80
2022-10-13T08:41:46.050Z,15.00
2022-10-13T08:47:09.334Z,15.20
2022-10-13T08:52:26.973Z,15.30
2022-10-13T08:57:30.624Z,15.40
2022-10-13T09:02:33.244Z,15.50
2022-10-13T09:07:37.173Z,15.70
2022-10-13T09:12:39.992Z,15.90
2022-10-13T09:17:42.845Z,16.10
2022-10-13T09:23:00.011Z,16.30
2022-10-13T09:28:09.524Z,16.50
2022-10-13T09:33:12.440Z,16.70
2022-10-13T09:38:21.446Z,17.00
2022-10-13T09:43:31.843Z,17.20
2022-10-13T09:48:36.705Z,17.30
2022-10-13T09:53:40.940Z,17.50
2022-10-13T09:59:14.632Z,17.70
2022-10-13T10:04:23.106Z,17.90
2022-10-13T10:09:41.552Z,18.20
2022-10-13T10:14:44.464Z,18.30
2022-10-13T10:19:59.261Z,18.40
2022-10-13T10:25:40.011Z,18.50
2022-10-13T10:30:50.111Z,18.90
2022-10-13T10:35:54.739Z,19.30
2022-10-13T10:40:57.527Z,19.70
2022-10-13T10:46:00.892Z,20.30
2022-10-13T10:51:06.605Z,20.90
2022-10-13T10:56:09.680Z,21.50
2022-10-13T11:01:12.548Z,22.10
2022-10-13T11:06:18.518Z,22.90
2022-10-13T11:11:32.298Z,23.80
2022-10-13T11:16:40.988Z,24.50
2022-10-13T11:21:52.976Z,25.10
2022-10-13T11:26:56.002Z,25.40
2022-10-13T11:31:58.897Z,25.80
2022-10-13T11:37:03.105Z,26.20
2022-10-13T11:42:12.315Z,26.60
2022-10-13T11:47:55.918Z,26.90
2022-10-13T11:53:11.594Z,26.90
2022-10-13T11:58:17.518Z,26.60
2022-10-13T12:03:31.916Z,25.80
2022-10-13T12:08:36.125Z,24.70
2022-10-13T12:13:39.272Z,23.70
2022-10-13T12:18:41.949Z,23.00
2022-10-13T12:23:45.086Z,22.30
2022-10-13T12:29:05.264Z,21.80
2022-10-13T12:34:25.636Z,21.40
2022-10-13T12:39:30.946Z,21.10
2022-10-13T12:44:34.087Z,20.80
2022-10-13T12:49:37.222Z,20.70
2022-10-13T12:54:47.310Z,20.50
2022-10-13T12:59:50.139Z,20.40
2022-10-13T13:04:53.154Z,20.30
2022-10-13T13:10:20.018Z,20.20
2022-10-13T13:15:26.096Z,20.20
2022-10-13T13:20:34.780Z,20.20
2022-10-13T13:25:37.653Z,20.20
2022-10-13T13:30:41.098Z,20.20
2022-10-13T13:35:43.875Z,20.10
2022-10-13T13:40:46.655Z,20.10
2022-10-13T13:45:49.544Z,20.10
2022-10-13T13:50:52.334Z,20.00
2022-10-13T13:55:55.240Z,20.00
2022-10-13T14:00:59.753Z,19.90
2022-10-13T14:06:02.417Z,20.00
2022-10-13T14:11:08.509Z,19.90
2022-10-13T14:16:16.056Z,19.90
2022-10-13T14:21:18.903Z,19.80
2022-10-13T14:26:21.739Z,19.70
2022-10-13T14:31:24.866Z,19.70
2022-10-13T14:36:28.297Z,19.70
2022-10-13T14:41:31.149Z,19.60
2022-10-13T14:46:33.970Z,19.60
2022-10-13T14:51:36.735Z,19.50
2022-10-13T14:56:39.526Z,19.50
2022-10-13T15:01:42.749Z,19.40
2022-10-13T15:06:45.530Z,19.30
2022-10-13T15:11:48.348Z,19.20
2022-10-13T15:16:51.535Z,19.10
2022-10-13T15:21:54.429Z,18.90
2022-10-13T15:26:57.263Z,18.70
2022-10-13T15:32:11.362Z,18.50
2022-10-13T15:37:14.252Z,18.30
2022-10-13T15:42:17.138Z,18.00
2022-10-13T15:47:19.969Z,17.80
2022-10-13T15:52:22.989Z,17.60
2022-10-13T15:57:26.062Z,17.40
2022-10-13T16:02:28.888Z,17.20
2022-10-13T16:07:32.519Z,17.00
2022-10-13T16:12:35.669Z,16.70
2022-10-13T16:17:38.544Z,16.40
2022-10-13T16:22:41.272Z,16.10
2022-10-13T16:27:44.712Z,15.90
2022-10-13T16:32:47.686Z,15.60
2022-10-13T16:37:50.860Z,15.30
2022-10-13T16:42:53.896Z,15.10
2022-10-13T16:47:57.378Z,15.00
2022-10-13T16:53:00.148Z,15.00
2022-10-13T16:58:03.013Z,14.90
2022-10-13T17:03:06.777Z,14.80
2022-10-13T17:08:09.608Z,14.70
2022-10-13T17:13:12.524Z,14.60
2022-10-13T17:18:15.335Z,14.40
2022-10-13T17:23:18.303Z,14.30
2022-10-13T17:28:21.834Z,14.20
2022-10-13T17:33:25.081Z,14.10
2022-10-13T17:38:28.798Z,14.00
2022-10-13T17:43:32.970Z,13.90
2022-10-13T17:48:35.772Z,13.80
2022-10-13T17:53:39.914Z,13.70
2022-10-13T17:58:43.252Z,13.70
2022-10-13T18:03:47.802Z,13.60
2022-10-13T18:08:51.598Z,13.60
2022-10-13T18:13:54.601Z,13.40
2022-10-13T18:18:57.499Z,13.20
2022-10-13T18:24:02.109Z,13.10
2022-10-13T18:29:06.442Z,13.00
2022-10-13T18:34:14.130Z,13.00
2022-10-13T18:39:19.663Z,13.00
2022-10-13T18:44:24.218Z,13.00
2022-10-13T18:49:33.573Z,12.90
2022-10-13T18:54:36.364Z,12.90
2022-10-13T18:59:39.023Z,12.80
2022-10-13T19:04:41.857Z,12.70
2022-10-13T19:09:45.079Z,12.60
2022-10-13T19:14:47.835Z,12.60
2022-10-13T19:19:50.874Z,12.50
2022-10-13T19:24:53.798Z,12.50
2022-10-13T19:29:56.591Z,12.40
2022-10-13T19:34:59.449Z,12.30
2022-10-13T19:40:02.528Z,12.20
2022-10-13T19:45:06.053Z,12.20
2022-10-13T19:50:08.915Z,12.10
2022-10-13T19:55:11.769Z,12.00
2022-10-13T20:00:15.381Z,11.90
2022-10-13T20:05:20.928Z,11.80
2022-10-13T20:10:27.523Z,11.80
2022-10-13T20:15:30.272Z,11.70
2022-10-13T20:20:35.173Z,11.70
2022-10-13T20:25:38.289Z,11.70
2022-10-13T20:30:41.062Z,11.60
2022-10-13T20:35:44.146Z,11.50
2022-10-13T20:40:47.971Z,11.50
2022-10-13T20:45:59.770Z,11.50
2022-10-13T20:51:04.431Z,11.50
2022-10-13T20:56:08.868Z,11.50
2022-10-13T21:01:12.398Z,11.40
2022-10-13T21:06:15.307Z,11.40
2022-10-13T21:11:20.201Z,11.40
2022-10-13T21:16:27.322Z,11.40
2022-10-13T21:21:33.367Z,11.30
2022-10-13T21:26:37.151Z,11.30
2022-10-13T21:31:39.956Z,11.20
2022-10-13T21:36:44.576Z,11.20
2022-10-13T21:41:47.452Z,11.10
2022-10-13T21:46:50.305Z,11.10
2022-10-13T21:51:53.086Z,11.00
2022-10-13T21:56:55.974Z,10.90
2022-10-13T22:01:58.772Z,10.90
2022-10-13T22:07:01.736Z,10.80
2022-10-13T22:12:05.399Z,10.80
2022-10-13T22:17:08.555Z,10.80
2022-10-13T22:22:11.389Z,10.90
2022-10-13T22:27:14.244Z,10.80
2022-10-13T22:32:17.090Z,10.80
2022-10-13T22:37:20.279Z,10.70
2022-10-13T22:42:23.755Z,10.70
2022-10-13T22:47:26.667Z,10.70
2022-10-13T22:52:29.240Z,10.70
2022-10-13T22:57:32.098Z,10.60
2022-10-13T23:02:34.926Z,10.60
2022-10-13T23:07:37.689Z,10.50
2022-10-13T23:12:40.475Z,10.50
2022-10-13T23:17:43.326Z,10.50
2022-10-13T23:22:46.069Z,10.40
2022-10-13T23:27:48.869Z,10.40
2022-10-13T23:32:51.714Z,10.40
2022-10-13T23:37:54.625Z,10.40
2022-10-13T23:42:57.248Z,10.30
2022-10-13T23:48:00.002Z,10.20
2022-10-13T23:53:03.397Z,10.20
2022-10-13T23:58:06.683Z,10.10
